sensor_id;sensor_type;location;lat;lon;timestamp;P1;durP1;ratioP1;P2;durP2;ratioP2
16354;SDS011;8287;51.644;8.494;2023-05-10T00:02:13;7.00;;;6.18;;
16354;SDS011;8287;51.644;8.494;2023-05-10T00:04:40;8.35;;;6.97;;
16354;SDS011;8287;51.644;8.494;2023-05-10T00:07:06;7.68;;;6.88;;
16354;SDS011;8287;51.644;8.494;2023-05-10T00:09:33;7.40;;;5.88;;
16354;SDS011;8287;51.644;8.494;2023-05-10T00:11:59;7.85;;;6.97;;
16354;SDS011;8287;51.644;8.494;2023-05-10T00:14:27;7.47;;;6.72;;
16354;SDS011;8287;51.644;8.494;2023-05-10T00:16:54;8.73;;;7.55;;
16354;SDS011;8287;51.644;8.494;2023-05-10T00:19:21;7.45;;;6.47;;
16354;SDS011;8287;51.644;8.494;2023-05-10T00:21:47;8.98;;;6.90;;
16354;SDS011;8287;51.644;8.494;2023-05-10T00:24:14;7.28;;;6.45;;
16354;SDS011;8287;51.644;8.494;2023-05-10T00:26:41;7.75;;;6.95;;
16354;SDS011;8287;51.644;8.494;2023-05-10T00:29:08;8.32;;;7.53;;
16354;SDS011;8287;51.644;8.494;2023-05-10T00:31:36;10.10;;;7.80;;
16354;SDS011;8287;51.644;8.494;2023-05-10T00:34:02;10.68;;;8.00;;
16354;SDS011;8287;51.644;8.494;2023-05-10T00:36:29;7.68;;;6.90;;
16354;SDS011;8287;51.644;8.494;2023-05-10T00:38:56;8.35;;;7.55;;
16354;SDS011;8287;51.644;8.494;2023-05-10T00:41:23;7.88;;;7.05;;
16354;SDS011;8287;51.644;8.494;2023-05-10T00:43:49;7.72;;;6.90;;
16354;SDS011;8287;51.644;8.494;2023-05-10T00:46:16;8.38;;;6.32;;
16354;SDS011;8287;51.644;8.494;2023-05-10T00:48:44;9.82;;;8.55;;
16354;SDS011;8287;51.644;8.494;2023-05-10T00:51:11;7.97;;;6.88;;
16354;SDS011;8287;51.644;8.494;2023-05-10T00:53:38;8.23;;;7.22;;
16354;SDS011;8287;51.644;8.494;2023-05-10T00:56:04;9.18;;;8.18;;
16354;SDS011;8287;51.644;8.494;2023-05-10T00:58:31;10.18;;;8.40;;
16354;SDS011;8287;51.644;8.494;2023-05-10T01:00:58;10.40;;;8.13;;
16354;SDS011;8287;51.644;8.494;2023-05-10T01:03:25;9.73;;;8.73;;
16354;SDS011;8287;51.644;8.494;2023-05-10T01:05:53;10.18;;;8.52;;
16354;SDS011;8287;51.644;8.494;2023-05-10T01:08:20;9.90;;;8.52;;
16354;SDS011;8287;51.644;8.494;2023-05-10T01:10:47;8.18;;;6.55;;
16354;SDS011;8287;51.644;8.494;2023-05-10T01:13:16;8.45;;;5.65;;
16354;SDS011;8287;51.644;8.494;2023-05-10T01:15:50;3.78;;;3.47;;
16354;SDS011;8287;51.644;8.494;2023-05-10T01:18:17;7.03;;;3.78;;
16354;SDS011;8287;51.644;8.494;2023-05-10T01:20:47;4.18;;;3.65;;
16354;SDS011;8287;51.644;8.494;2023-05-10T01:23:28;4.25;;;3.45;;
16354;SDS011;8287;51.644;8.494;2023-05-10T01:26:07;6.07;;;3.95;;
16354;SDS011;8287;51.644;8.494;2023-05-10T01:31:59;4.57;;;3.75;;
16354;SDS011;8287;51.644;8.494;2023-05-10T01:34:42;4.78;;;4.13;;
16354;SDS011;8287;51.644;8.494;2023-05-10T01:37:19;4.60;;;4.07;;
16354;SDS011;8287;51.644;8.494;2023-05-10T01:39:49;3.72;;;3.17;;
16354;SDS011;8287;51.644;8.494;2023-05-10T01:42:25;4.45;;;3.45;;
16354;SDS011;8287;51.644;8.494;2023-05-10T01:44:58;4.00;;;2.75;;
16354;SDS011;8287;51.644;8.494;2023-05-10T01:47:31;5.13;;;3.63;;
16354;SDS011;8287;51.644;8.494;2023-05-10T01:50:04;5.70;;;3.53;;
16354;SDS011;8287;51.644;8.494;2023-05-10T01:52:36;4.57;;;2.88;;
16354;SDS011;8287;51.644;8.494;2023-05-10T01:55:08;5.35;;;3.38;;
16354;SDS011;8287;51.644;8.494;2023-05-10T01:57:37;3.33;;;2.72;;
16354;SDS011;8287;51.644;8.494;2023-05-10T02:00:06;4.68;;;2.80;;
16354;SDS011;8287;51.644;8.494;2023-05-10T02:02:37;3.97;;;2.85;;
16354;SDS011;8287;51.644;8.494;2023-05-10T02:05:07;4.40;;;2.83;;
16354;SDS011;8287;51.644;8.494;2023-05-10T02:07:35;5.15;;;3.38;;
16354;SDS011;8287;51.644;8.494;2023-05-10T02:10:02;5.57;;;3.78;;
16354;SDS011;8287;51.644;8.494;2023-05-10T02:12:32;8.63;;;4.40;;
16354;SDS011;8287;51.644;8.494;2023-05-10T02:15:02;6.82;;;4.32;;
16354;SDS011;8287;51.644;8.494;2023-05-10T02:17:31;5.05;;;3.42;;
16354;SDS011;8287;51.644;8.494;2023-05-10T02:20:00;4.95;;;3.25;;
16354;SDS011;8287;51.644;8.494;2023-05-10T02:22:28;4.70;;;3.30;;
16354;SDS011;8287;51.644;8.494;2023-05-10T02:24:55;4.35;;;2.53;;
16354;SDS011;8287;51.644;8.494;2023-05-10T02:27:24;2.45;;;2.25;;
16354;SDS011;8287;51.644;8.494;2023-05-10T02:29:52;2.38;;;2.10;;
16354;SDS011;8287;51.644;8.494;2023-05-10T02:32:20;2.40;;;2.20;;
16354;SDS011;8287;51.644;8.494;2023-05-10T02:34:48;2.58;;;2.38;;
16354;SDS011;8287;51.644;8.494;2023-05-10T02:37:18;2.63;;;2.33;;
16354;SDS011;8287;51.644;8.494;2023-05-10T02:39:46;2.08;;;1.92;;
16354;SDS011;8287;51.644;8.494;2023-05-10T02:42:14;2.47;;;2.00;;
16354;SDS011;8287;51.644;8.494;2023-05-10T02:44:42;2.05;;;1.95;;
16354;SDS011;8287;51.644;8.494;2023-05-10T02:47:11;2.15;;;1.95;;
16354;SDS011;8287;51.644;8.494;2023-05-10T02:49:38;2.33;;;2.13;;
16354;SDS011;8287;51.644;8.494;2023-05-10T02:52:05;3.13;;;2.83;;
16354;SDS011;8287;51.644;8.494;2023-05-10T02:54:37;2.33;;;2.13;;
16354;SDS011;8287;51.644;8.494;2023-05-10T02:57:10;2.75;;;2.53;;
16354;SDS011;8287;51.644;8.494;2023-05-10T02:59:40;2.75;;;2.55;;
16354;SDS011;8287;51.644;8.494;2023-05-10T03:02:07;3.50;;;2.38;;
16354;SDS011;8287;51.644;8.494;2023-05-10T03:04:35;3.45;;;3.15;;
16354;SDS011;8287;51.644;8.494;2023-05-10T03:07:01;5.00;;;3.50;;
16354;SDS011;8287;51.644;8.494;2023-05-10T03:09:28;3.85;;;3.38;;
16354;SDS011;8287;51.644;8.494;2023-05-10T03:12:00;4.60;;;4.13;;
16354;SDS011;8287;51.644;8.494;2023-05-10T03:14:34;5.63;;;3.47;;
16354;SDS011;8287;51.644;8.494;2023-05-10T03:17:14;3.58;;;3.17;;
16354;SDS011;8287;51.644;8.494;2023-05-10T03:19:45;4.10;;;3.63;;
16354;SDS011;8287;51.644;8.494;2023-05-10T03:22:19;4.93;;;4.43;;
16354;SDS011;8287;51.644;8.494;2023-05-10T03:24:49;4.32;;;3.67;;
16354;SDS011;8287;51.644;8.494;2023-05-10T03:27:21;4.38;;;3.88;;
16354;SDS011;8287;51.644;8.494;2023-05-10T03:29:50;4.65;;;4.05;;
16354;SDS011;8287;51.644;8.494;2023-05-10T03:32:17;4.68;;;4.20;;
16354;SDS011;8287;51.644;8.494;2023-05-10T03:34:43;4.70;;;4.30;;
16354;SDS011;8287;51.644;8.494;2023-05-10T03:37:10;6.45;;;5.50;;
16354;SDS011;8287;51.644;8.494;2023-05-10T03:39:37;6.32;;;5.32;;
16354;SDS011;8287;51.644;8.494;2023-05-10T03:42:03;6.45;;;5.60;;
16354;SDS011;8287;51.644;8.494;2023-05-10T03:44:31;6.63;;;4.85;;
16354;SDS011;8287;51.644;8.494;2023-05-10T03:46:59;5.60;;;5.05;;
16354;SDS011;8287;51.644;8.494;2023-05-10T03:49:25;5.18;;;4.68;;
16354;SDS011;8287;51.644;8.494;2023-05-10T03:51:52;7.47;;;5.72;;
16354;SDS011;8287;51.644;8.494;2023-05-10T03:54:18;6.90;;;5.43;;
16354;SDS011;8287;51.644;8.494;2023-05-10T03:56:45;6.55;;;5.53;;
16354;SDS011;8287;51.644;8.494;2023-05-10T03:59:12;7.65;;;5.57;;
16354;SDS011;8287;51.644;8.494;2023-05-10T04:01:41;6.40;;;5.43;;
16354;SDS011;8287;51.644;8.494;2023-05-10T04:04:07;6.95;;;5.65;;
16354;SDS011;8287;51.644;8.494;2023-05-10T04:06:34;6.30;;;5.53;;
16354;SDS011;8287;51.644;8.494;2023-05-10T04:09:00;6.03;;;5.50;;
16354;SDS011;8287;51.644;8.494;2023-05-10T04:11:29;4.47;;;4.07;;
16354;SDS011;8287;51.644;8.494;2023-05-10T04:13:56;4.05;;;3.53;;
16354;SDS011;8287;51.644;8.494;2023-05-10T04:16:22;3.58;;;3.25;;
16354;SDS011;8287;51.644;8.494;2023-05-10T04:18:50;3.20;;;2.90;;
16354;SDS011;8287;51.644;8.494;2023-05-10T04:21:17;3.60;;;2.88;;
16354;SDS011;8287;51.644;8.494;2023-05-10T04:23:43;1.98;;;1.67;;
16354;SDS011;8287;51.644;8.494;2023-05-10T04:26:10;1.90;;;1.80;;
16354;SDS011;8287;51.644;8.494;2023-05-10T04:28:37;1.60;;;1.50;;
16354;SDS011;8287;51.644;8.494;2023-05-10T04:31:03;1.48;;;1.38;;
16354;SDS011;8287;51.644;8.494;2023-05-10T04:33:31;1.40;;;1.30;;
16354;SDS011;8287;51.644;8.494;2023-05-10T04:35:59;1.73;;;1.50;;
16354;SDS011;8287;51.644;8.494;2023-05-10T04:38:26;1.88;;;1.17;;
16354;SDS011;8287;51.644;8.494;2023-05-10T04:40:52;1.30;;;1.20;;
16354;SDS011;8287;51.644;8.494;2023-05-10T04:43:19;1.20;;;1.10;;
16354;SDS011;8287;51.644;8.494;2023-05-10T04:45:46;1.33;;;1.23;;
16354;SDS011;8287;51.644;8.494;2023-05-10T04:48:12;1.17;;;1.08;;
16354;SDS011;8287;51.644;8.494;2023-05-10T04:50:39;0.63;;;0.63;;
16354;SDS011;8287;51.644;8.494;2023-05-10T04:53:07;2.17;;;1.00;;
16354;SDS011;8287;51.644;8.494;2023-05-10T04:55:33;1.13;;;1.10;;
16354;SDS011;8287;51.644;8.494;2023-05-10T04:58:00;0.80;;;0.80;;
16354;SDS011;8287;51.644;8.494;2023-05-10T05:00:27;0.90;;;0.90;;
16354;SDS011;8287;51.644;8.494;2023-05-10T05:02:54;1.05;;;0.80;;
16354;SDS011;8287;51.644;8.494;2023-05-10T05:05:21;2.33;;;0.85;;
16354;SDS011;8287;51.644;8.494;2023-05-10T05:07:47;0.93;;;0.90;;
16354;SDS011;8287;51.644;8.494;2023-05-10T05:10:15;2.40;;;1.10;;
16354;SDS011;8287;51.644;8.494;2023-05-10T05:12:42;0.90;;;0.90;;
16354;SDS011;8287;51.644;8.494;2023-05-10T05:15:09;1.17;;;1.08;;
16354;SDS011;8287;51.644;8.494;2023-05-10T05:17:36;1.10;;;1.05;;
16354;SDS011;8287;51.644;8.494;2023-05-10T05:20:03;1.08;;;0.90;;
16354;SDS011;8287;51.644;8.494;2023-05-10T05:22:30;1.15;;;1.05;;
16354;SDS011;8287;51.644;8.494;2023-05-10T05:24:57;0.77;;;0.77;;
16354;SDS011;8287;51.644;8.494;2023-05-10T05:27:25;1.67;;;1.13;;
16354;SDS011;8287;51.644;8.494;2023-05-10T05:29:52;0.80;;;0.80;;
16354;SDS011;8287;51.644;8.494;2023-05-10T05:32:19;2.53;;;0.80;;
16354;SDS011;8287;51.644;8.494;2023-05-10T05:34:46;1.23;;;1.13;;
16354;SDS011;8287;51.644;8.494;2023-05-10T05:37:13;1.35;;;1.30;;
16354;SDS011;8287;51.644;8.494;2023-05-10T05:39:40;2.85;;;1.65;;
16354;SDS011;8287;51.644;8.494;2023-05-10T05:42:07;2.35;;;1.55;;
16354;SDS011;8287;51.644;8.494;2023-05-10T05:44:35;1.55;;;1.45;;
16354;SDS011;8287;51.644;8.494;2023-05-10T05:47:02;4.63;;;2.90;;
16354;SDS011;8287;51.644;8.494;2023-05-10T05:49:29;8.70;;;5.15;;
16354;SDS011;8287;51.644;8.494;2023-05-10T05:51:58;10.98;;;6.50;;
16354;SDS011;8287;51.644;8.494;2023-05-10T05:54:25;2.65;;;2.45;;
16354;SDS011;8287;51.644;8.494;2023-05-10T05:56:53;2.38;;;2.00;;
16354;SDS011;8287;51.644;8.494;2023-05-10T05:59:20;1.73;;;1.63;;
16354;SDS011;8287;51.644;8.494;2023-05-10T06:01:48;1.60;;;1.50;;
16354;SDS011;8287;51.644;8.494;2023-05-10T06:04:14;2.42;;;2.00;;
16354;SDS011;8287;51.644;8.494;2023-05-10T06:06:41;1.55;;;1.45;;
16354;SDS011;8287;51.644;8.494;2023-05-10T06:09:08;1.52;;;1.40;;
16354;SDS011;8287;51.644;8.494;2023-05-10T06:11:34;1.70;;;1.60;;
16354;SDS011;8287;51.644;8.494;2023-05-10T06:14:01;1.40;;;1.17;;
16354;SDS011;8287;51.644;8.494;2023-05-10T06:16:29;3.20;;;1.70;;
16354;SDS011;8287;51.644;8.494;2023-05-10T06:18:57;2.00;;;1.45;;
16354;SDS011;8287;51.644;8.494;2023-05-10T06:21:23;1.92;;;1.70;;
16354;SDS011;8287;51.644;8.494;2023-05-10T06:23:50;2.17;;;1.60;;
16354;SDS011;8287;51.644;8.494;2023-05-10T06:26:17;2.00;;;1.70;;
16354;SDS011;8287;51.644;8.494;2023-05-10T06:28:43;1.65;;;1.50;;
16354;SDS011;8287;51.644;8.494;2023-05-10T06:31:10;2.83;;;2.00;;
16354;SDS011;8287;51.644;8.494;2023-05-10T06:33:37;4.43;;;2.33;;
16354;SDS011;8287;51.644;8.494;2023-05-10T06:36:05;3.65;;;2.28;;
16354;SDS011;8287;51.644;8.494;2023-05-10T06:38:32;2.58;;;2.30;;
16354;SDS011;8287;51.644;8.494;2023-05-10T06:40:58;2.85;;;2.28;;
16354;SDS011;8287;51.644;8.494;2023-05-10T06:43:25;8.63;;;2.30;;
16354;SDS011;8287;51.644;8.494;2023-05-10T06:45:53;5.07;;;3.10;;
16354;SDS011;8287;51.644;8.494;2023-05-10T06:48:20;5.47;;;3.50;;
16354;SDS011;8287;51.644;8.494;2023-05-10T06:50:46;6.15;;;3.05;;
16354;SDS011;8287;51.644;8.494;2023-05-10T06:53:14;7.18;;;3.88;;
16354;SDS011;8287;51.644;8.494;2023-05-10T06:55:41;5.88;;;4.03;;
16354;SDS011;8287;51.644;8.494;2023-05-10T06:58:07;5.93;;;4.55;;
16354;SDS011;8287;51.644;8.494;2023-05-10T07:00:34;5.47;;;4.32;;
16354;SDS011;8287;51.644;8.494;2023-05-10T07:03:04;5.38;;;4.38;;
16354;SDS011;8287;51.644;8.494;2023-05-10T07:05:31;5.22;;;4.22;;
16354;SDS011;8287;51.644;8.494;2023-05-10T07:07:57;6.03;;;4.47;;
16354;SDS011;8287;51.644;8.494;2023-05-10T07:10:25;9.18;;;6.60;;
16354;SDS011;8287;51.644;8.494;2023-05-10T07:12:52;8.52;;;6.80;;
16354;SDS011;8287;51.644;8.494;2023-05-10T07:15:19;11.18;;;7.63;;
16354;SDS011;8287;51.644;8.494;2023-05-10T07:17:45;8.30;;;6.70;;
16354;SDS011;8287;51.644;8.494;2023-05-10T07:20:12;11.30;;;7.78;;
16354;SDS011;8287;51.644;8.494;2023-05-10T07:22:39;11.80;;;8.35;;
16354;SDS011;8287;51.644;8.494;2023-05-10T07:25:06;14.18;;;7.45;;
16354;SDS011;8287;51.644;8.494;2023-05-10T07:27:34;12.52;;;9.25;;
16354;SDS011;8287;51.644;8.494;2023-05-10T07:30:01;14.30;;;9.77;;
16354;SDS011;8287;51.644;8.494;2023-05-10T07:32:28;10.93;;;7.82;;
16354;SDS011;8287;51.644;8.494;2023-05-10T07:34:54;11.07;;;8.32;;
16354;SDS011;8287;51.644;8.494;2023-05-10T07:37:21;12.32;;;8.85;;
16354;SDS011;8287;51.644;8.494;2023-05-10T07:39:47;12.98;;;9.07;;
16354;SDS011;8287;51.644;8.494;2023-05-10T07:42:14;12.95;;;9.75;;
16354;SDS011;8287;51.644;8.494;2023-05-10T07:44:42;13.00;;;9.48;;
16354;SDS011;8287;51.644;8.494;2023-05-10T07:47:08;14.15;;;9.50;;
16354;SDS011;8287;51.644;8.494;2023-05-10T07:49:35;14.40;;;8.52;;
16354;SDS011;8287;51.644;8.494;2023-05-10T07:52:02;13.40;;;10.40;;
16354;SDS011;8287;51.644;8.494;2023-05-10T07:54:30;13.70;;;10.23;;
16354;SDS011;8287;51.644;8.494;2023-05-10T07:56:56;16.63;;;11.63;;
16354;SDS011;8287;51.644;8.494;2023-05-10T07:59:23;16.15;;;11.80;;
16354;SDS011;8287;51.644;8.494;2023-05-10T08:01:51;14.95;;;11.70;;
16354;SDS011;8287;51.644;8.494;2023-05-10T08:04:18;16.17;;;11.48;;
16354;SDS011;8287;51.644;8.494;2023-05-10T08:06:44;19.00;;;11.57;;
16354;SDS011;8287;51.644;8.494;2023-05-10T08:09:11;17.58;;;12.73;;
16354;SDS011;8287;51.644;8.494;2023-05-10T08:11:38;17.35;;;12.15;;
16354;SDS011;8287;51.644;8.494;2023-05-10T08:14:04;17.77;;;12.30;;
16354;SDS011;8287;51.644;8.494;2023-05-10T08:16:31;17.90;;;11.10;;
16354;SDS011;8287;51.644;8.494;2023-05-10T08:19:00;13.30;;;10.30;;
16354;SDS011;8287;51.644;8.494;2023-05-10T08:21:27;14.05;;;10.93;;
16354;SDS011;8287;51.644;8.494;2023-05-10T08:23:54;16.20;;;10.50;;
16354;SDS011;8287;51.644;8.494;2023-05-10T08:26:20;15.07;;;10.27;;
16354;SDS011;8287;51.644;8.494;2023-05-10T08:28:47;15.35;;;10.25;;
16354;SDS011;8287;51.644;8.494;2023-05-10T08:31:13;16.40;;;11.63;;
16354;SDS011;8287;51.644;8.494;2023-05-10T08:33:40;20.13;;;13.27;;
16354;SDS011;8287;51.644;8.494;2023-05-10T08:36:08;18.40;;;13.80;;
16354;SDS011;8287;51.644;8.494;2023-05-10T08:38:35;23.65;;;14.40;;
16354;SDS011;8287;51.644;8.494;2023-05-10T08:41:02;18.95;;;14.05;;
16354;SDS011;8287;51.644;8.494;2023-05-10T08:43:29;20.95;;;14.15;;
16354;SDS011;8287;51.644;8.494;2023-05-10T08:45:56;24.50;;;15.93;;
16354;SDS011;8287;51.644;8.494;2023-05-10T08:48:25;22.55;;;14.88;;
16354;SDS011;8287;51.644;8.494;2023-05-10T08:50:55;21.02;;;16.17;;
16354;SDS011;8287;51.644;8.494;2023-05-10T08:53:26;24.63;;;16.00;;
16354;SDS011;8287;51.644;8.494;2023-05-10T08:55:55;23.80;;;15.40;;
16354;SDS011;8287;51.644;8.494;2023-05-10T08:58:21;25.50;;;15.52;;
16354;SDS011;8287;51.644;8.494;2023-05-10T09:00:48;27.75;;;17.52;;
16354;SDS011;8287;51.644;8.494;2023-05-10T09:03:16;24.38;;;16.33;;
16354;SDS011;8287;51.644;8.494;2023-05-10T09:05:43;23.25;;;15.63;;
16354;SDS011;8287;51.644;8.494;2023-05-10T09:08:10;26.40;;;15.10;;
16354;SDS011;8287;51.644;8.494;2023-05-10T09:10:39;21.88;;;14.40;;
16354;SDS011;8287;51.644;8.494;2023-05-10T09:13:08;24.88;;;15.43;;
16354;SDS011;8287;51.644;8.494;2023-05-10T09:15:36;23.80;;;14.25;;
16354;SDS011;8287;51.644;8.494;2023-05-10T09:18:03;23.10;;;15.75;;
16354;SDS011;8287;51.644;8.494;2023-05-10T09:20:30;20.42;;;14.15;;
16354;SDS011;8287;51.644;8.494;2023-05-10T09:22:57;23.10;;;15.88;;
16354;SDS011;8287;51.644;8.494;2023-05-10T09:25:23;24.30;;;16.17;;
16354;SDS011;8287;51.644;8.494;2023-05-10T09:27:51;26.35;;;16.38;;
16354;SDS011;8287;51.644;8.494;2023-05-10T09:30:22;19.63;;;14.32;;
16354;SDS011;8287;51.644;8.494;2023-05-10T09:32:50;23.08;;;16.27;;
16354;SDS011;8287;51.644;8.494;2023-05-10T09:35:17;26.08;;;15.60;;
16354;SDS011;8287;51.644;8.494;2023-05-10T09:37:45;21.23;;;15.60;;
16354;SDS011;8287;51.644;8.494;2023-05-10T09:40:14;27.00;;;17.80;;
16354;SDS011;8287;51.644;8.494;2023-05-10T09:42:42;22.88;;;16.35;;
16354;SDS011;8287;51.644;8.494;2023-05-10T09:45:17;20.88;;;17.08;;
16354;SDS011;8287;51.644;8.494;2023-05-10T09:47:45;23.50;;;15.80;;
16354;SDS011;8287;51.644;8.494;2023-05-10T09:50:12;20.70;;;14.88;;
16354;SDS011;8287;51.644;8.494;2023-05-10T09:52:48;21.33;;;14.68;;
16354;SDS011;8287;51.644;8.494;2023-05-10T09:55:16;25.35;;;16.48;;
16354;SDS011;8287;51.644;8.494;2023-05-10T09:57:44;22.58;;;16.38;;
16354;SDS011;8287;51.644;8.494;2023-05-10T10:00:15;23.45;;;16.55;;
16354;SDS011;8287;51.644;8.494;2023-05-10T10:02:46;23.48;;;16.30;;
16354;SDS011;8287;51.644;8.494;2023-05-10T10:05:13;20.88;;;15.48;;
16354;SDS011;8287;51.644;8.494;2023-05-10T10:07:41;26.42;;;16.80;;
16354;SDS011;8287;51.644;8.494;2023-05-10T10:10:08;25.48;;;16.52;;
16354;SDS011;8287;51.644;8.494;2023-05-10T10:12:37;22.35;;;15.18;;
16354;SDS011;8287;51.644;8.494;2023-05-10T10:15:05;23.70;;;15.93;;
16354;SDS011;8287;51.644;8.494;2023-05-10T10:17:35;26.10;;;15.85;;
16354;SDS011;8287;51.644;8.494;2023-05-10T10:20:03;18.65;;;14.00;;
16354;SDS011;8287;51.644;8.494;2023-05-10T10:22:30;22.85;;;16.05;;
16354;SDS011;8287;51.644;8.494;2023-05-10T10:24:57;23.33;;;16.00;;
16354;SDS011;8287;51.644;8.494;2023-05-10T10:27:24;21.65;;;15.70;;
16354;SDS011;8287;51.644;8.494;2023-05-10T10:30:01;22.38;;;15.73;;
16354;SDS011;8287;51.644;8.494;2023-05-10T10:32:47;21.70;;;14.23;;
16354;SDS011;8287;51.644;8.494;2023-05-10T10:35:26;20.08;;;14.85;;
16354;SDS011;8287;51.644;8.494;2023-05-10T10:37:55;21.38;;;15.45;;
16354;SDS011;8287;51.644;8.494;2023-05-10T10:40:22;17.65;;;12.45;;
16354;SDS011;8287;51.644;8.494;2023-05-10T10:42:51;21.27;;;14.27;;
16354;SDS011;8287;51.644;8.494;2023-05-10T10:45:19;19.80;;;14.15;;
16354;SDS011;8287;51.644;8.494;2023-05-10T10:47:47;19.27;;;13.93;;
16354;SDS011;8287;51.644;8.494;2023-05-10T10:50:14;20.25;;;14.75;;
16354;SDS011;8287;51.644;8.494;2023-05-10T10:52:42;22.23;;;14.48;;
16354;SDS011;8287;51.644;8.494;2023-05-10T10:55:10;20.20;;;14.48;;
16354;SDS011;8287;51.644;8.494;2023-05-10T10:57:48;15.27;;;11.32;;
16354;SDS011;8287;51.644;8.494;2023-05-10T11:00:21;15.07;;;11.63;;
16354;SDS011;8287;51.644;8.494;2023-05-10T11:02:50;18.45;;;13.15;;
16354;SDS011;8287;51.644;8.494;2023-05-10T11:05:25;19.50;;;12.82;;
16354;SDS011;8287;51.644;8.494;2023-05-10T11:08:11;12.77;;;9.50;;
16354;SDS011;8287;51.644;8.494;2023-05-10T11:10:39;12.13;;;7.57;;
16354;SDS011;8287;51.644;8.494;2023-05-10T11:13:07;8.95;;;6.78;;
16354;SDS011;8287;51.644;8.494;2023-05-10T11:15:35;11.55;;;8.60;;
16354;SDS011;8287;51.644;8.494;2023-05-10T11:20:56;7.47;;;6.70;;
16354;SDS011;8287;51.644;8.494;2023-05-10T11:23:28;7.55;;;6.40;;
16354;SDS011;8287;51.644;8.494;2023-05-10T11:25:56;8.73;;;6.88;;
16354;SDS011;8287;51.644;8.494;2023-05-10T11:28:23;9.20;;;7.60;;
16354;SDS011;8287;51.644;8.494;2023-05-10T11:30:49;10.50;;;7.35;;
16354;SDS011;8287;51.644;8.494;2023-05-10T11:33:17;9.13;;;6.75;;
16354;SDS011;8287;51.644;8.494;2023-05-10T11:35:46;8.98;;;7.25;;
16354;SDS011;8287;51.644;8.494;2023-05-10T11:38:13;17.13;;;8.95;;
16354;SDS011;8287;51.644;8.494;2023-05-10T11:40:40;14.13;;;8.63;;
16354;SDS011;8287;51.644;8.494;2023-05-10T11:43:08;12.20;;;9.75;;
16354;SDS011;8287;51.644;8.494;2023-05-10T11:45:35;15.30;;;11.10;;
16354;SDS011;8287;51.644;8.494;2023-05-10T11:48:02;14.88;;;11.38;;
16354;SDS011;8287;51.644;8.494;2023-05-10T11:50:29;18.65;;;12.43;;
16354;SDS011;8287;51.644;8.494;2023-05-10T11:52:57;16.20;;;12.18;;
16354;SDS011;8287;51.644;8.494;2023-05-10T11:55:24;20.50;;;13.10;;
16354;SDS011;8287;51.644;8.494;2023-05-10T11:57:51;20.88;;;15.18;;
16354;SDS011;8287;51.644;8.494;2023-05-10T12:00:18;20.90;;;13.48;;
16354;SDS011;8287;51.644;8.494;2023-05-10T12:02:45;15.63;;;11.77;;
16354;SDS011;8287;51.644;8.494;2023-05-10T12:05:12;20.15;;;14.05;;
16354;SDS011;8287;51.644;8.494;2023-05-10T12:07:39;23.90;;;15.45;;
16354;SDS011;8287;51.644;8.494;2023-05-10T12:10:07;17.15;;;13.27;;
16354;SDS011;8287;51.644;8.494;2023-05-10T12:12:36;16.17;;;11.85;;
16354;SDS011;8287;51.644;8.494;2023-05-10T12:15:04;18.23;;;14.10;;
16354;SDS011;8287;51.644;8.494;2023-05-10T12:17:36;17.63;;;13.32;;
16354;SDS011;8287;51.644;8.494;2023-05-10T12:20:12;13.93;;;11.65;;
16354;SDS011;8287;51.644;8.494;2023-05-10T12:22:40;17.92;;;13.68;;
16354;SDS011;8287;51.644;8.494;2023-05-10T12:25:09;21.40;;;14.23;;
16354;SDS011;8287;51.644;8.494;2023-05-10T12:27:36;17.55;;;13.35;;
16354;SDS011;8287;51.644;8.494;2023-05-10T12:30:03;19.42;;;12.27;;
16354;SDS011;8287;51.644;8.494;2023-05-10T12:32:37;16.98;;;12.45;;
16354;SDS011;8287;51.644;8.494;2023-05-10T12:35:04;17.05;;;12.15;;
16354;SDS011;8287;51.644;8.494;2023-05-10T12:37:31;20.65;;;13.85;;
16354;SDS011;8287;51.644;8.494;2023-05-10T12:40:01;20.88;;;14.13;;
16354;SDS011;8287;51.644;8.494;2023-05-10T12:42:31;17.88;;;12.85;;
16354;SDS011;8287;51.644;8.494;2023-05-10T12:44:58;17.38;;;11.68;;
16354;SDS011;8287;51.644;8.494;2023-05-10T12:47:24;19.20;;;13.02;;
16354;SDS011;8287;51.644;8.494;2023-05-10T12:49:51;15.52;;;11.88;;
16354;SDS011;8287;51.644;8.494;2023-05-10T12:52:17;15.70;;;11.63;;
16354;SDS011;8287;51.644;8.494;2023-05-10T12:54:44;18.63;;;12.27;;
16354;SDS011;8287;51.644;8.494;2023-05-10T12:57:11;15.02;;;11.55;;
16354;SDS011;8287;51.644;8.494;2023-05-10T12:59:39;15.68;;;10.60;;
16354;SDS011;8287;51.644;8.494;2023-05-10T13:02:05;17.63;;;12.52;;
16354;SDS011;8287;51.644;8.494;2023-05-10T13:04:32;18.83;;;12.60;;
16354;SDS011;8287;51.644;8.494;2023-05-10T13:06:59;14.85;;;11.20;;
16354;SDS011;8287;51.644;8.494;2023-05-10T13:09:25;15.30;;;11.93;;
16354;SDS011;8287;51.644;8.494;2023-05-10T13:11:54;19.45;;;12.07;;
16354;SDS011;8287;51.644;8.494;2023-05-10T13:14:20;17.73;;;12.45;;
16354;SDS011;8287;51.644;8.494;2023-05-10T13:16:48;16.55;;;10.95;;
16354;SDS011;8287;51.644;8.494;2023-05-10T13:19:15;14.50;;;10.45;;
16354;SDS011;8287;51.644;8.494;2023-05-10T13:21:43;15.40;;;11.25;;
16354;SDS011;8287;51.644;8.494;2023-05-10T13:24:10;19.25;;;11.55;;
16354;SDS011;8287;51.644;8.494;2023-05-10T13:26:38;12.57;;;8.70;;
16354;SDS011;8287;51.644;8.494;2023-05-10T13:29:05;13.43;;;9.63;;
16354;SDS011;8287;51.644;8.494;2023-05-10T13:31:32;14.82;;;8.63;;
16354;SDS011;8287;51.644;8.494;2023-05-10T13:34:01;15.32;;;9.77;;
16354;SDS011;8287;51.644;8.494;2023-05-10T13:36:27;18.55;;;12.40;;
16354;SDS011;8287;51.644;8.494;2023-05-10T13:38:54;12.73;;;8.77;;
16354;SDS011;8287;51.644;8.494;2023-05-10T13:41:21;12.65;;;7.43;;
16354;SDS011;8287;51.644;8.494;2023-05-10T13:43:47;12.60;;;6.80;;
16354;SDS011;8287;51.644;8.494;2023-05-10T13:46:14;11.43;;;6.45;;
16354;SDS011;8287;51.644;8.494;2023-05-10T13:48:41;9.25;;;6.15;;
16354;SDS011;8287;51.644;8.494;2023-05-10T13:51:09;10.30;;;7.20;;
16354;SDS011;8287;51.644;8.494;2023-05-10T13:53:36;10.57;;;6.80;;
16354;SDS011;8287;51.644;8.494;2023-05-10T13:56:02;10.98;;;6.93;;
16354;SDS011;8287;51.644;8.494;2023-05-10T13:58:29;9.15;;;6.00;;
16354;SDS011;8287;51.644;8.494;2023-05-10T14:00:55;16.02;;;6.65;;
16354;SDS011;8287;51.644;8.494;2023-05-10T14:03:22;12.27;;;6.63;;
16354;SDS011;8287;51.644;8.494;2023-05-10T14:05:49;10.52;;;6.65;;
16354;SDS011;8287;51.644;8.494;2023-05-10T14:08:16;8.82;;;6.65;;
16354;SDS011;8287;51.644;8.494;2023-05-10T14:10:43;11.40;;;7.35;;
16354;SDS011;8287;51.644;8.494;2023-05-10T14:13:10;10.98;;;7.13;;
16354;SDS011;8287;51.644;8.494;2023-05-10T14:15:37;7.22;;;5.53;;
16354;SDS011;8287;51.644;8.494;2023-05-10T14:18:03;7.30;;;5.13;;
16354;SDS011;8287;51.644;8.494;2023-05-10T14:20:30;9.75;;;6.88;;
16354;SDS011;8287;51.644;8.494;2023-05-10T14:22:58;7.15;;;5.68;;
16354;SDS011;8287;51.644;8.494;2023-05-10T14:25:26;9.38;;;5.70;;
16354;SDS011;8287;51.644;8.494;2023-05-10T14:27:53;6.82;;;5.03;;
16354;SDS011;8287;51.644;8.494;2023-05-10T14:30:20;9.25;;;6.90;;
16354;SDS011;8287;51.644;8.494;2023-05-10T14:32:46;8.35;;;6.28;;
16354;SDS011;8287;51.644;8.494;2023-05-10T14:35:13;9.07;;;6.25;;
16354;SDS011;8287;51.644;8.494;2023-05-10T14:37:40;8.15;;;6.03;;
16354;SDS011;8287;51.644;8.494;2023-05-10T14:40:07;7.57;;;5.85;;
16354;SDS011;8287;51.644;8.494;2023-05-10T14:42:36;13.75;;;7.40;;
16354;SDS011;8287;51.644;8.494;2023-05-10T14:45:02;10.35;;;6.30;;
16354;SDS011;8287;51.644;8.494;2023-05-10T14:47:30;7.72;;;6.32;;
16354;SDS011;8287;51.644;8.494;2023-05-10T14:49:56;10.70;;;5.93;;
16354;SDS011;8287;51.644;8.494;2023-05-10T14:52:23;10.27;;;7.93;;
16354;SDS011;8287;51.644;8.494;2023-05-10T14:54:49;16.05;;;10.63;;
16354;SDS011;8287;51.644;8.494;2023-05-10T14:57:16;10.32;;;7.63;;
16354;SDS011;8287;51.644;8.494;2023-05-10T14:59:44;12.15;;;9.73;;
16354;SDS011;8287;51.644;8.494;2023-05-10T15:02:11;12.93;;;8.45;;